sensor_id;sensor_type;location;lat;lon;timestamp;P1;durP1;ratioP1;P2;durP2;ratioP2
1679;SDS011;838;51.794;12.258;2024-03-07T00:00:06;22.13;;;11.87;;
1679;SDS011;838;51.794;12.258;2024-03-07T00:02:49;19.60;;;13.07;;
1679;SDS011;838;51.794;12.258;2024-03-07T00:05:17;18.77;;;12.40;;
1679;SDS011;838;51.794;12.258;2024-03-07T00:07:44;20.87;;;12.57;;
1679;SDS011;838;51.794;12.258;2024-03-07T00:10:11;21.83;;;13.20;;
1679;SDS011;838;51.794;12.258;2024-03-07T00:12:37;23.57;;;14.57;;
1679;SDS011;838;51.794;12.258;2024-03-07T00:15:08;19.40;;;12.40;;
1679;SDS011;838;51.794;12.258;2024-03-07T00:17:38;21.70;;;12.80;;
1679;SDS011;838;51.794;12.258;2024-03-07T00:20:04;19.73;;;12.97;;
1679;SDS011;838;51.794;12.258;2024-03-07T00:22:34;20.03;;;12.43;;
1679;SDS011;838;51.794;12.258;2024-03-07T00:25:00;21.57;;;12.83;;
1679;SDS011;838;51.794;12.258;2024-03-07T00:27:26;18.17;;;11.90;;
1679;SDS011;838;51.794;12.258;2024-03-07T00:29:52;21.50;;;13.13;;
1679;SDS011;838;51.794;12.258;2024-03-07T00:32:19;20.83;;;12.20;;
1679;SDS011;838;51.794;12.258;2024-03-07T00:34:48;17.17;;;12.73;;
1679;SDS011;838;51.794;12.258;2024-03-07T00:37:15;19.33;;;13.50;;
1679;SDS011;838;51.794;12.258;2024-03-07T00:39:41;17.53;;;12.60;;
1679;SDS011;838;51.794;12.258;2024-03-07T00:42:07;20.80;;;13.20;;
1679;SDS011;838;51.794;12.258;2024-03-07T00:44:33;21.20;;;13.07;;
1679;SDS011;838;51.794;12.258;2024-03-07T00:46:59;21.13;;;14.17;;
1679;SDS011;838;51.794;12.258;2024-03-07T00:49:27;19.57;;;12.40;;
1679;SDS011;838;51.794;12.258;2024-03-07T00:51:53;20.80;;;13.07;;
1679;SDS011;838;51.794;12.258;2024-03-07T00:54:22;22.50;;;13.60;;
1679;SDS011;838;51.794;12.258;2024-03-07T00:56:48;20.73;;;12.47;;
1679;SDS011;838;51.794;12.258;2024-03-07T00:59:17;19.93;;;13.63;;
1679;SDS011;838;51.794;12.258;2024-03-07T01:01:43;19.43;;;12.80;;
1679;SDS011;838;51.794;12.258;2024-03-07T01:04:09;20.97;;;12.83;;
1679;SDS011;838;51.794;12.258;2024-03-07T01:06:35;18.40;;;12.70;;
1679;SDS011;838;51.794;12.258;2024-03-07T01:09:04;22.93;;;13.90;;
1679;SDS011;838;51.794;12.258;2024-03-07T01:11:30;21.00;;;13.20;;
1679;SDS011;838;51.794;12.258;2024-03-07T01:13:55;23.83;;;14.57;;
1679;SDS011;838;51.794;12.258;2024-03-07T01:16:22;21.77;;;13.83;;
1679;SDS011;838;51.794;12.258;2024-03-07T01:18:47;22.60;;;13.40;;
1679;SDS011;838;51.794;12.258;2024-03-07T01:21:14;17.77;;;11.60;;
1679;SDS011;838;51.794;12.258;2024-03-07T01:23:40;22.80;;;14.20;;
1679;SDS011;838;51.794;12.258;2024-03-07T01:26:05;19.07;;;13.67;;
1679;SDS011;838;51.794;12.258;2024-03-07T01:28:32;25.57;;;14.20;;
1679;SDS011;838;51.794;12.258;2024-03-07T01:30:58;21.37;;;14.53;;
1679;SDS011;838;51.794;12.258;2024-03-07T01:33:23;20.70;;;14.10;;
1679;SDS011;838;51.794;12.258;2024-03-07T01:35:49;24.23;;;14.40;;
1679;SDS011;838;51.794;12.258;2024-03-07T01:38:15;20.37;;;13.17;;
1679;SDS011;838;51.794;12.258;2024-03-07T01:40:44;25.57;;;15.17;;
1679;SDS011;838;51.794;12.258;2024-03-07T01:43:10;23.70;;;15.20;;
1679;SDS011;838;51.794;12.258;2024-03-07T01:45:36;22.53;;;14.77;;
1679;SDS011;838;51.794;12.258;2024-03-07T01:48:03;25.03;;;14.87;;
1679;SDS011;838;51.794;12.258;2024-03-07T01:50:30;24.17;;;14.93;;
1679;SDS011;838;51.794;12.258;2024-03-07T01:52:57;28.00;;;16.93;;
1679;SDS011;838;51.794;12.258;2024-03-07T01:55:24;39.10;;;18.20;;
1679;SDS011;838;51.794;12.258;2024-03-07T01:57:51;30.27;;;16.40;;
1679;SDS011;838;51.794;12.258;2024-03-07T02:00:16;30.53;;;17.70;;
1679;SDS011;838;51.794;12.258;2024-03-07T02:02:43;31.00;;;17.47;;
1679;SDS011;838;51.794;12.258;2024-03-07T02:05:10;33.80;;;19.07;;
1679;SDS011;838;51.794;12.258;2024-03-07T02:07:36;36.83;;;20.50;;
1679;SDS011;838;51.794;12.258;2024-03-07T02:10:04;30.13;;;18.77;;
1679;SDS011;838;51.794;12.258;2024-03-07T02:12:30;34.43;;;18.90;;
1679;SDS011;838;51.794;12.258;2024-03-07T02:14:56;41.93;;;20.23;;
1679;SDS011;838;51.794;12.258;2024-03-07T02:17:23;34.37;;;20.37;;
1679;SDS011;838;51.794;12.258;2024-03-07T02:19:49;35.70;;;21.07;;
1679;SDS011;838;51.794;12.258;2024-03-07T02:22:15;39.90;;;19.27;;
1679;SDS011;838;51.794;12.258;2024-03-07T02:24:42;44.77;;;22.13;;
1679;SDS011;838;51.794;12.258;2024-03-07T02:27:07;38.87;;;20.47;;
1679;SDS011;838;51.794;12.258;2024-03-07T02:29:34;38.33;;;21.50;;
1679;SDS011;838;51.794;12.258;2024-03-07T02:32:01;41.60;;;21.10;;
1679;SDS011;838;51.794;12.258;2024-03-07T02:34:27;37.13;;;20.30;;
1679;SDS011;838;51.794;12.258;2024-03-07T02:36:53;36.70;;;21.63;;
1679;SDS011;838;51.794;12.258;2024-03-07T02:39:19;44.07;;;22.43;;
1679;SDS011;838;51.794;12.258;2024-03-07T02:41:46;44.20;;;24.40;;
1679;SDS011;838;51.794;12.258;2024-03-07T02:44:12;42.80;;;23.60;;
1679;SDS011;838;51.794;12.258;2024-03-07T02:46:39;41.80;;;22.30;;
1679;SDS011;838;51.794;12.258;2024-03-07T02:49:05;44.20;;;23.90;;
1679;SDS011;838;51.794;12.258;2024-03-07T02:51:31;43.80;;;23.37;;
1679;SDS011;838;51.794;12.258;2024-03-07T02:53:57;53.37;;;24.20;;
1679;SDS011;838;51.794;12.258;2024-03-07T02:56:23;47.57;;;23.20;;
1679;SDS011;838;51.794;12.258;2024-03-07T02:58:50;49.67;;;23.97;;
1679;SDS011;838;51.794;12.258;2024-03-07T03:01:16;44.17;;;23.70;;
1679;SDS011;838;51.794;12.258;2024-03-07T03:03:42;44.43;;;23.97;;
1679;SDS011;838;51.794;12.258;2024-03-07T03:06:08;44.80;;;25.70;;
1679;SDS011;838;51.794;12.258;2024-03-07T03:08:37;47.60;;;25.30;;
1679;SDS011;838;51.794;12.258;2024-03-07T03:11:03;43.13;;;24.60;;
1679;SDS011;838;51.794;12.258;2024-03-07T03:13:28;53.47;;;25.70;;
1679;SDS011;838;51.794;12.258;2024-03-07T03:15:57;49.37;;;25.53;;
1679;SDS011;838;51.794;12.258;2024-03-07T03:18:23;50.53;;;27.20;;
1679;SDS011;838;51.794;12.258;2024-03-07T03:20:49;50.10;;;26.10;;
1679;SDS011;838;51.794;12.258;2024-03-07T03:23:16;48.60;;;24.97;;
1679;SDS011;838;51.794;12.258;2024-03-07T03:25:42;53.13;;;26.20;;
1679;SDS011;838;51.794;12.258;2024-03-07T03:28:08;55.47;;;24.40;;
1679;SDS011;838;51.794;12.258;2024-03-07T03:30:37;50.40;;;26.10;;
1679;SDS011;838;51.794;12.258;2024-03-07T03:33:04;50.67;;;26.13;;
1679;SDS011;838;51.794;12.258;2024-03-07T03:35:39;48.23;;;25.70;;
1679;SDS011;838;51.794;12.258;2024-03-07T03:38:05;49.97;;;26.60;;
1679;SDS011;838;51.794;12.258;2024-03-07T03:40:31;50.30;;;25.90;;
1679;SDS011;838;51.794;12.258;2024-03-07T03:42:57;51.93;;;24.07;;
1679;SDS011;838;51.794;12.258;2024-03-07T03:45:23;51.23;;;26.70;;
1679;SDS011;838;51.794;12.258;2024-03-07T03:47:51;46.43;;;25.27;;
1679;SDS011;838;51.794;12.258;2024-03-07T03:50:17;48.03;;;25.20;;
1679;SDS011;838;51.794;12.258;2024-03-07T03:52:43;47.13;;;25.40;;
1679;SDS011;838;51.794;12.258;2024-03-07T03:55:09;45.20;;;25.07;;
1679;SDS011;838;51.794;12.258;2024-03-07T03:57:37;55.60;;;26.07;;
1679;SDS011;838;51.794;12.258;2024-03-07T04:00:05;48.23;;;26.00;;
1679;SDS011;838;51.794;12.258;2024-03-07T04:02:38;55.70;;;26.70;;
1679;SDS011;838;51.794;12.258;2024-03-07T04:05:08;53.67;;;27.10;;
1679;SDS011;838;51.794;12.258;2024-03-07T04:07:35;48.70;;;26.00;;
1679;SDS011;838;51.794;12.258;2024-03-07T04:10:01;45.80;;;24.63;;
1679;SDS011;838;51.794;12.258;2024-03-07T04:12:28;47.83;;;25.10;;
1679;SDS011;838;51.794;12.258;2024-03-07T04:14:54;52.90;;;25.63;;
1679;SDS011;838;51.794;12.258;2024-03-07T04:17:20;49.77;;;27.00;;
1679;SDS011;838;51.794;12.258;2024-03-07T04:19:46;42.20;;;24.50;;
1679;SDS011;838;51.794;12.258;2024-03-07T04:22:13;47.60;;;26.10;;
1679;SDS011;838;51.794;12.258;2024-03-07T04:24:39;55.20;;;27.03;;
1679;SDS011;838;51.794;12.258;2024-03-07T04:27:05;53.47;;;26.47;;
1679;SDS011;838;51.794;12.258;2024-03-07T04:29:34;49.90;;;26.60;;
1679;SDS011;838;51.794;12.258;2024-03-07T04:32:01;47.17;;;25.57;;
1679;SDS011;838;51.794;12.258;2024-03-07T04:34:28;50.10;;;27.67;;
1679;SDS011;838;51.794;12.258;2024-03-07T04:36:57;54.97;;;26.33;;
1679;SDS011;838;51.794;12.258;2024-03-07T04:39:25;51.30;;;25.83;;
1679;SDS011;838;51.794;12.258;2024-03-07T04:42:04;54.30;;;28.70;;
1679;SDS011;838;51.794;12.258;2024-03-07T04:44:34;52.00;;;26.57;;
1679;SDS011;838;51.794;12.258;2024-03-07T04:47:01;55.67;;;28.30;;
1679;SDS011;838;51.794;12.258;2024-03-07T04:49:29;56.73;;;27.93;;
1679;SDS011;838;51.794;12.258;2024-03-07T04:51:56;49.07;;;25.83;;
1679;SDS011;838;51.794;12.258;2024-03-07T04:54:24;54.37;;;27.73;;
1679;SDS011;838;51.794;12.258;2024-03-07T04:56:50;57.23;;;28.07;;
1679;SDS011;838;51.794;12.258;2024-03-07T04:59:18;53.73;;;28.17;;
1679;SDS011;838;51.794;12.258;2024-03-07T05:01:44;50.83;;;27.37;;
1679;SDS011;838;51.794;12.258;2024-03-07T05:04:14;45.53;;;26.60;;
1679;SDS011;838;51.794;12.258;2024-03-07T05:06:40;50.53;;;28.20;;
1679;SDS011;838;51.794;12.258;2024-03-07T05:09:07;46.87;;;25.97;;
1679;SDS011;838;51.794;12.258;2024-03-07T05:11:35;49.50;;;24.63;;
1679;SDS011;838;51.794;12.258;2024-03-07T05:14:01;43.70;;;24.40;;
1679;SDS011;838;51.794;12.258;2024-03-07T05:16:28;47.07;;;25.13;;
1679;SDS011;838;51.794;12.258;2024-03-07T05:18:54;41.13;;;25.20;;
1679;SDS011;838;51.794;12.258;2024-03-07T05:21:24;47.03;;;25.93;;
1679;SDS011;838;51.794;12.258;2024-03-07T05:24:06;49.20;;;26.27;;
1679;SDS011;838;51.794;12.258;2024-03-07T05:26:36;44.57;;;26.17;;
1679;SDS011;838;51.794;12.258;2024-03-07T05:29:08;47.83;;;26.70;;
1679;SDS011;838;51.794;12.258;2024-03-07T05:31:34;43.23;;;24.87;;
1679;SDS011;838;51.794;12.258;2024-03-07T05:34:01;47.00;;;24.47;;
1679;SDS011;838;51.794;12.258;2024-03-07T05:36:34;42.43;;;23.53;;
1679;SDS011;838;51.794;12.258;2024-03-07T05:39:10;44.90;;;23.47;;
1679;SDS011;838;51.794;12.258;2024-03-07T05:41:37;42.90;;;23.67;;
1679;SDS011;838;51.794;12.258;2024-03-07T05:44:03;46.37;;;27.23;;
1679;SDS011;838;51.794;12.258;2024-03-07T05:46:33;40.33;;;23.43;;
1679;SDS011;838;51.794;12.258;2024-03-07T05:49:00;44.10;;;24.97;;
1679;SDS011;838;51.794;12.258;2024-03-07T05:51:26;41.77;;;22.73;;
1679;SDS011;838;51.794;12.258;2024-03-07T05:53:52;40.60;;;24.07;;
1679;SDS011;838;51.794;12.258;2024-03-07T05:56:18;42.87;;;22.80;;
1679;SDS011;838;51.794;12.258;2024-03-07T05:58:44;47.87;;;25.13;;
1679;SDS011;838;51.794;12.258;2024-03-07T06:01:10;46.80;;;25.37;;
1679;SDS011;838;51.794;12.258;2024-03-07T06:03:36;41.83;;;23.10;;
1679;SDS011;838;51.794;12.258;2024-03-07T06:06:02;36.17;;;22.10;;
1679;SDS011;838;51.794;12.258;2024-03-07T06:08:31;39.37;;;23.90;;
1679;SDS011;838;51.794;12.258;2024-03-07T06:10:57;40.27;;;21.97;;
1679;SDS011;838;51.794;12.258;2024-03-07T06:13:23;35.03;;;20.27;;
1679;SDS011;838;51.794;12.258;2024-03-07T06:15:48;45.43;;;23.50;;
1679;SDS011;838;51.794;12.258;2024-03-07T06:18:14;38.53;;;21.90;;
1679;SDS011;838;51.794;12.258;2024-03-07T06:20:40;34.50;;;21.33;;
1679;SDS011;838;51.794;12.258;2024-03-07T06:23:07;39.70;;;23.17;;
1679;SDS011;838;51.794;12.258;2024-03-07T06:25:33;39.33;;;22.20;;
1679;SDS011;838;51.794;12.258;2024-03-07T06:28:03;37.80;;;23.53;;
1679;SDS011;838;51.794;12.258;2024-03-07T06:30:39;43.27;;;24.20;;
1679;SDS011;838;51.794;12.258;2024-03-07T06:33:07;45.30;;;22.33;;
1679;SDS011;838;51.794;12.258;2024-03-07T06:35:33;42.20;;;22.80;;
1679;SDS011;838;51.794;12.258;2024-03-07T06:38:04;37.80;;;23.93;;
1679;SDS011;838;51.794;12.258;2024-03-07T06:40:30;41.23;;;20.93;;
1679;SDS011;838;51.794;12.258;2024-03-07T06:42:57;41.70;;;22.40;;
1679;SDS011;838;51.794;12.258;2024-03-07T06:45:24;41.30;;;23.70;;
1679;SDS011;838;51.794;12.258;2024-03-07T06:47:51;36.23;;;22.30;;
1679;SDS011;838;51.794;12.258;2024-03-07T06:50:20;40.43;;;23.37;;
1679;SDS011;838;51.794;12.258;2024-03-07T06:52:46;35.57;;;20.87;;
1679;SDS011;838;51.794;12.258;2024-03-07T06:55:14;37.13;;;22.27;;
1679;SDS011;838;51.794;12.258;2024-03-07T06:57:44;43.63;;;20.60;;
1679;SDS011;838;51.794;12.258;2024-03-07T07:00:13;31.00;;;20.63;;
1679;SDS011;838;51.794;12.258;2024-03-07T07:02:47;37.30;;;20.80;;
1679;SDS011;838;51.794;12.258;2024-03-07T07:05:13;38.00;;;19.37;;
1679;SDS011;838;51.794;12.258;2024-03-07T07:07:43;36.93;;;19.90;;
1679;SDS011;838;51.794;12.258;2024-03-07T07:10:10;36.70;;;21.17;;
1679;SDS011;838;51.794;12.258;2024-03-07T07:12:46;36.03;;;20.80;;
1679;SDS011;838;51.794;12.258;2024-03-07T07:15:16;32.50;;;20.67;;
1679;SDS011;838;51.794;12.258;2024-03-07T07:17:44;31.67;;;19.23;;
1679;SDS011;838;51.794;12.258;2024-03-07T07:20:14;35.13;;;19.43;;
1679;SDS011;838;51.794;12.258;2024-03-07T07:22:41;36.20;;;19.83;;
1679;SDS011;838;51.794;12.258;2024-03-07T07:25:07;35.73;;;19.80;;
1679;SDS011;838;51.794;12.258;2024-03-07T07:30:12;39.67;;;21.30;;
1679;SDS011;838;51.794;12.258;2024-03-07T07:32:40;32.80;;;18.93;;
1679;SDS011;838;51.794;12.258;2024-03-07T07:35:06;25.93;;;16.33;;
1679;SDS011;838;51.794;12.258;2024-03-07T07:37:36;25.63;;;16.17;;
1679;SDS011;838;51.794;12.258;2024-03-07T07:40:10;25.90;;;16.47;;
1679;SDS011;838;51.794;12.258;2024-03-07T07:42:46;26.13;;;16.57;;
1679;SDS011;838;51.794;12.258;2024-03-07T07:45:13;27.03;;;15.80;;
1679;SDS011;838;51.794;12.258;2024-03-07T07:47:50;23.50;;;15.60;;
1679;SDS011;838;51.794;12.258;2024-03-07T07:50:17;26.60;;;16.97;;
1679;SDS011;838;51.794;12.258;2024-03-07T07:52:45;27.10;;;15.90;;
1679;SDS011;838;51.794;12.258;2024-03-07T07:55:13;22.80;;;15.67;;
1679;SDS011;838;51.794;12.258;2024-03-07T07:57:46;21.30;;;14.33;;
1679;SDS011;838;51.794;12.258;2024-03-07T08:00:14;22.10;;;15.07;;
1679;SDS011;838;51.794;12.258;2024-03-07T08:02:56;28.37;;;15.97;;
1679;SDS011;838;51.794;12.258;2024-03-07T08:05:32;20.93;;;12.80;;
1679;SDS011;838;51.794;12.258;2024-03-07T08:08:00;19.37;;;11.63;;
1679;SDS011;838;51.794;12.258;2024-03-07T08:10:38;19.73;;;12.90;;
1679;SDS011;838;51.794;12.258;2024-03-07T08:13:06;21.67;;;12.53;;
1679;SDS011;838;51.794;12.258;2024-03-07T08:15:33;19.53;;;12.70;;
1679;SDS011;838;51.794;12.258;2024-03-07T08:17:59;15.87;;;12.37;;
1679;SDS011;838;51.794;12.258;2024-03-07T08:20:25;20.37;;;12.00;;
1679;SDS011;838;51.794;12.258;2024-03-07T08:22:55;18.10;;;12.23;;
1679;SDS011;838;51.794;12.258;2024-03-07T08:25:25;14.70;;;10.43;;
1679;SDS011;838;51.794;12.258;2024-03-07T08:27:53;19.77;;;12.13;;
1679;SDS011;838;51.794;12.258;2024-03-07T08:30:21;19.67;;;11.50;;
1679;SDS011;838;51.794;12.258;2024-03-07T08:32:54;19.10;;;11.23;;
1679;SDS011;838;51.794;12.258;2024-03-07T08:35:21;17.73;;;12.17;;
1679;SDS011;838;51.794;12.258;2024-03-07T08:37:48;20.03;;;11.50;;
1679;SDS011;838;51.794;12.258;2024-03-07T08:40:18;17.27;;;11.23;;
1679;SDS011;838;51.794;12.258;2024-03-07T08:42:44;16.70;;;11.07;;
1679;SDS011;838;51.794;12.258;2024-03-07T08:45:11;17.13;;;11.00;;
1679;SDS011;838;51.794;12.258;2024-03-07T08:47:42;18.40;;;10.47;;
1679;SDS011;838;51.794;12.258;2024-03-07T08:50:08;15.17;;;10.20;;
1679;SDS011;838;51.794;12.258;2024-03-07T08:52:35;16.47;;;9.80;;
1679;SDS011;838;51.794;12.258;2024-03-07T08:55:05;14.67;;;9.50;;
1679;SDS011;838;51.794;12.258;2024-03-07T08:57:34;14.87;;;10.13;;
1679;SDS011;838;51.794;12.258;2024-03-07T09:00:01;18.17;;;10.50;;
1679;SDS011;838;51.794;12.258;2024-03-07T09:02:33;16.90;;;10.47;;
1679;SDS011;838;51.794;12.258;2024-03-07T09:05:00;15.13;;;10.47;;
1679;SDS011;838;51.794;12.258;2024-03-07T09:07:26;18.63;;;9.23;;
1679;SDS011;838;51.794;12.258;2024-03-07T09:09:54;15.30;;;10.30;;
1679;SDS011;838;51.794;12.258;2024-03-07T09:12:20;15.00;;;10.20;;
1679;SDS011;838;51.794;12.258;2024-03-07T09:14:46;15.57;;;10.67;;
1679;SDS011;838;51.794;12.258;2024-03-07T09:17:12;14.30;;;9.10;;
1679;SDS011;838;51.794;12.258;2024-03-07T09:19:38;15.60;;;8.87;;
1679;SDS011;838;51.794;12.258;2024-03-07T09:22:03;14.37;;;9.27;;
1679;SDS011;838;51.794;12.258;2024-03-07T09:24:30;17.40;;;10.10;;
1679;SDS011;838;51.794;12.258;2024-03-07T09:26:56;14.13;;;10.43;;
1679;SDS011;838;51.794;12.258;2024-03-07T09:29:22;15.87;;;8.93;;
1679;SDS011;838;51.794;12.258;2024-03-07T09:31:52;12.13;;;8.83;;
1679;SDS011;838;51.794;12.258;2024-03-07T09:34:18;13.00;;;8.93;;
1679;SDS011;838;51.794;12.258;2024-03-07T09:36:48;11.63;;;8.20;;
1679;SDS011;838;51.794;12.258;2024-03-07T09:39:16;14.87;;;8.37;;
1679;SDS011;838;51.794;12.258;2024-03-07T09:41:44;15.77;;;9.90;;
1679;SDS011;838;51.794;12.258;2024-03-07T09:44:12;16.70;;;8.80;;
1679;SDS011;838;51.794;12.258;2024-03-07T09:46:47;17.70;;;9.83;;
1679;SDS011;838;51.794;12.258;2024-03-07T09:49:14;13.43;;;9.57;;
1679;SDS011;838;51.794;12.258;2024-03-07T09:51:40;13.53;;;9.67;;
1679;SDS011;838;51.794;12.258;2024-03-07T09:54:07;15.47;;;9.07;;
1679;SDS011;838;51.794;12.258;2024-03-07T09:56:34;16.90;;;9.20;;
1679;SDS011;838;51.794;12.258;2024-03-07T09:59:03;13.40;;;9.83;;
1679;SDS011;838;51.794;12.258;2024-03-07T10:01:32;14.33;;;9.67;;
1679;SDS011;838;51.794;12.258;2024-03-07T10:03:59;14.20;;;10.60;;
1679;SDS011;838;51.794;12.258;2024-03-07T10:06:45;14.93;;;9.60;;
1679;SDS011;838;51.794;12.258;2024-03-07T10:09:11;14.57;;;9.17;;
1679;SDS011;838;51.794;12.258;2024-03-07T10:11:42;14.37;;;8.27;;
1679;SDS011;838;51.794;12.258;2024-03-07T10:14:09;12.87;;;8.73;;
1679;SDS011;838;51.794;12.258;2024-03-07T10:16:35;15.30;;;9.27;;
1679;SDS011;838;51.794;12.258;2024-03-07T10:19:04;15.53;;;9.13;;
1679;SDS011;838;51.794;12.258;2024-03-07T10:21:30;12.80;;;9.77;;
1679;SDS011;838;51.794;12.258;2024-03-07T10:24:05;14.60;;;9.47;;
1679;SDS011;838;51.794;12.258;2024-03-07T10:26:36;16.60;;;9.13;;
1679;SDS011;838;51.794;12.258;2024-03-07T10:29:03;13.83;;;8.33;;
1679;SDS011;838;51.794;12.258;2024-03-07T10:31:33;15.60;;;8.90;;
1679;SDS011;838;51.794;12.258;2024-03-07T10:34:05;11.60;;;7.63;;
1679;SDS011;838;51.794;12.258;2024-03-07T10:36:33;12.60;;;8.50;;
1679;SDS011;838;51.794;12.258;2024-03-07T10:39:00;14.10;;;9.70;;
1679;SDS011;838;51.794;12.258;2024-03-07T10:41:28;14.50;;;8.97;;
1679;SDS011;838;51.794;12.258;2024-03-07T10:43:58;17.47;;;8.67;;
1679;SDS011;838;51.794;12.258;2024-03-07T10:46:25;14.00;;;8.97;;
1679;SDS011;838;51.794;12.258;2024-03-07T10:48:52;14.47;;;9.20;;
1679;SDS011;838;51.794;12.258;2024-03-07T10:51:26;11.40;;;7.70;;
1679;SDS011;838;51.794;12.258;2024-03-07T10:54:21;12.87;;;7.83;;
1679;SDS011;838;51.794;12.258;2024-03-07T10:59:41;11.83;;;8.50;;
1679;SDS011;838;51.794;12.258;2024-03-07T11:02:24;12.20;;;8.60;;
1679;SDS011;838;51.794;12.258;2024-03-07T11:04:58;13.60;;;8.73;;
1679;SDS011;838;51.794;12.258;2024-03-07T11:07:24;11.10;;;7.37;;
1679;SDS011;838;51.794;12.258;2024-03-07T11:09:52;15.13;;;8.70;;
1679;SDS011;838;51.794;12.258;2024-03-07T11:12:23;14.83;;;9.13;;
1679;SDS011;838;51.794;12.258;2024-03-07T11:14:52;16.27;;;10.00;;
1679;SDS011;838;51.794;12.258;2024-03-07T11:17:21;13.77;;;9.37;;
1679;SDS011;838;51.794;12.258;2024-03-07T11:19:47;19.63;;;10.33;;
1679;SDS011;838;51.794;12.258;2024-03-07T11:22:30;15.90;;;10.33;;
1679;SDS011;838;51.794;12.258;2024-03-07T11:25:01;14.27;;;9.60;;
1679;SDS011;838;51.794;12.258;2024-03-07T11:27:38;13.43;;;10.00;;
1679;SDS011;838;51.794;12.258;2024-03-07T11:30:05;14.20;;;10.70;;
1679;SDS011;838;51.794;12.258;2024-03-07T11:32:37;15.20;;;10.80;;
1679;SDS011;838;51.794;12.258;2024-03-07T11:35:04;17.17;;;11.20;;
1679;SDS011;838;51.794;12.258;2024-03-07T11:37:40;23.70;;;10.83;;
1679;SDS011;838;51.794;12.258;2024-03-07T11:40:11;13.57;;;10.73;;
1679;SDS011;838;51.794;12.258;2024-03-07T11:42:43;14.23;;;10.47;;
1679;SDS011;838;51.794;12.258;2024-03-07T11:45:12;15.90;;;9.73;;
1679;SDS011;838;51.794;12.258;2024-03-07T11:48:02;15.47;;;11.23;;
1679;SDS011;838;51.794;12.258;2024-03-07T11:53:07;15.83;;;10.37;;
1679;SDS011;838;51.794;12.258;2024-03-07T11:55:37;16.33;;;10.97;;
1679;SDS011;838;51.794;12.258;2024-03-07T11:58:10;16.17;;;10.37;;
1679;SDS011;838;51.794;12.258;2024-03-07T12:00:38;14.00;;;9.57;;
1679;SDS011;838;51.794;12.258;2024-03-07T12:03:08;16.33;;;10.40;;
1679;SDS011;838;51.794;12.258;2024-03-07T12:05:38;13.57;;;9.40;;
1679;SDS011;838;51.794;12.258;2024-03-07T12:08:07;17.20;;;11.40;;
1679;SDS011;838;51.794;12.258;2024-03-07T12:10:35;17.30;;;11.37;;
1679;SDS011;838;51.794;12.258;2024-03-07T12:13:02;13.30;;;10.17;;
1679;SDS011;838;51.794;12.258;2024-03-07T12:15:28;11.23;;;9.90;;
1679;SDS011;838;51.794;12.258;2024-03-07T12:17:55;13.80;;;10.10;;
1679;SDS011;838;51.794;12.258;2024-03-07T12:20:22;14.33;;;9.37;;
1679;SDS011;838;51.794;12.258;2024-03-07T12:22:58;15.70;;;9.90;;
1679;SDS011;838;51.794;12.258;2024-03-07T12:25:31;13.60;;;8.67;;
1679;SDS011;838;51.794;12.258;2024-03-07T12:28:08;11.63;;;8.47;;
1679;SDS011;838;51.794;12.258;2024-03-07T12:30:54;12.37;;;8.90;;
1679;SDS011;838;51.794;12.258;2024-03-07T12:33:21;12.60;;;8.97;;
1679;SDS011;838;51.794;12.258;2024-03-07T12:35:50;16.00;;;8.10;;
1679;SDS011;838;51.794;12.258;2024-03-07T12:38:20;13.40;;;8.87;;
1679;SDS011;838;51.794;12.258;2024-03-07T12:41:01;11.97;;;8.17;;
1679;SDS011;838;51.794;12.258;2024-03-07T12:43:32;12.90;;;9.23;;
1679;SDS011;838;51.794;12.258;2024-03-07T12:45:58;13.93;;;10.40;;
1679;SDS011;838;51.794;12.258;2024-03-07T12:48:24;10.73;;;8.23;;
1679;SDS011;838;51.794;12.258;2024-03-07T12:50:50;11.13;;;8.60;;
1679;SDS011;838;51.794;12.258;2024-03-07T12:53:20;12.10;;;8.77;;
1679;SDS011;838;51.794;12.258;2024-03-07T12:55:47;13.40;;;8.53;;
1679;SDS011;838;51.794;12.258;2024-03-07T12:58:12;12.57;;;9.00;;
1679;SDS011;838;51.794;12.258;2024-03-07T13:00:39;15.03;;;10.57;;
1679;SDS011;838;51.794;12.258;2024-03-07T13:03:06;13.00;;;9.13;;
1679;SDS011;838;51.794;12.258;2024-03-07T13:05:35;12.97;;;9.23;;
1679;SDS011;838;51.794;12.258;2024-03-07T13:08:07;11.90;;;9.47;;
1679;SDS011;838;51.794;12.258;2024-03-07T13:10:39;13.27;;;10.70;;
1679;SDS011;838;51.794;12.258;2024-03-07T13:13:07;11.90;;;9.43;;
1679;SDS011;838;51.794;12.258;2024-03-07T13:15:35;13.30;;;9.10;;
1679;SDS011;838;51.794;12.258;2024-03-07T13:18:03;13.00;;;9.57;;
1679;SDS011;838;51.794;12.258;2024-03-07T13:20:30;13.80;;;9.40;;
1679;SDS011;838;51.794;12.258;2024-03-07T13:22:56;13.80;;;9.43;;
1679;SDS011;838;51.794;12.258;2024-03-07T13:25:24;16.10;;;9.33;;
1679;SDS011;838;51.794;12.258;2024-03-07T13:30:25;11.60;;;9.33;;
1679;SDS011;838;51.794;12.258;2024-03-07T13:32:57;11.13;;;8.83;;
1679;SDS011;838;51.794;12.258;2024-03-07T13:35:24;14.70;;;9.60;;
1679;SDS011;838;51.794;12.258;2024-03-07T13:37:54;13.40;;;8.20;;
1679;SDS011;838;51.794;12.258;2024-03-07T13:40:20;12.90;;;8.03;;
1679;SDS011;838;51.794;12.258;2024-03-07T13:43:00;14.40;;;8.70;;
1679;SDS011;838;51.794;12.258;2024-03-07T13:45:33;15.60;;;9.60;;
1679;SDS011;838;51.794;12.258;2024-03-07T13:48:04;13.27;;;8.33;;
1679;SDS011;838;51.794;12.258;2024-03-07T13:50:35;12.57;;;8.43;;
1679;SDS011;838;51.794;12.258;2024-03-07T13:53:10;10.90;;;8.53;;
1679;SDS011;838;51.794;12.258;2024-03-07T14:10:00;12.77;;;8.53;;
1679;SDS011;838;51.794;12.258;2024-03-07T14:32:29;13.13;;;7.70;;
1679;SDS011;838;51.794;12.258;2024-03-07T14:38:37;12.93;;;8.17;;
1679;SDS011;838;51.794;12.258;2024-03-07T14:40:52;10.63;;;8.73;;
1679;SDS011;838;51.794;12.258;2024-03-07T14:43:18;10.37;;;6.90;;
1679;SDS011;838;51.794;12.258;2024-03-07T14:45:44;11.93;;;7.40;;
1679;SDS011;838;51.794;12.258;2024-03-07T14:48:12;14.37;;;8.60;;
1679;SDS011;838;51.794;12.258;2024-03-07T14:50:41;12.13;;;7.20;;
1679;SDS011;838;51.794;12.258;2024-03-07T14:53:10;12.10;;;8.50;;
1679;SDS011;838;51.794;12.258;2024-03-07T14:55:37;15.73;;;8.57;;
1679;SDS011;838;51.794;12.258;2024-03-07T14:58:05;12.30;;;8.43;;
1679;SDS011;838;51.794;12.258;2024-03-07T15:00:34;12.20;;;8.50;;
1679;SDS011;838;51.794;12.258;2024-03-07T15:03:06;13.73;;;8.27;;
1679;SDS011;838;51.794;12.258;2024-03-07T15:05:35;16.33;;;8.70;;
1679;SDS011;838;51.794;12.258;2024-03-07T15:08:01;14.30;;;8.47;;
1679;SDS011;838;51.794;12.258;2024-03-07T15:10:28;12.97;;;7.80;;
1679;SDS011;838;51.794;12.258;2024-03-07T15:12:58;13.63;;;8.73;;
1679;SDS011;838;51.794;12.258;2024-03-07T15:15:25;16.23;;;9.33;;
1679;SDS011;838;51.794;12.258;2024-03-07T15:17:55;10.87;;;7.97;;
1679;SDS011;838;51.794;12.258;2024-03-07T15:20:21;11.57;;;7.70;;
1679;SDS011;838;51.794;12.258;2024-03-07T15:22:48;17.00;;;8.77;;
1679;SDS011;838;51.794;12.258;2024-03-07T15:25:16;11.33;;;8.40;;
1679;SDS011;838;51.794;12.258;2024-03-07T15:27:43;14.63;;;9.30;;
1679;SDS011;838;51.794;12.258;2024-03-07T15:30:11;12.33;;;8.00;;
1679;SDS011;838;51.794;12.258;2024-03-07T15:32:42;12.20;;;8.23;;
1679;SDS011;838;51.794;12.258;2024-03-07T15:35:12;13.07;;;7.73;;
1679;SDS011;838;51.794;12.258;2024-03-07T15:37:42;14.60;;;9.00;;
1679;SDS011;838;51.794;12.258;2024-03-07T15:40:08;14.73;;;8.57;;
1679;SDS011;838;51.794;12.258;2024-03-07T15:42:41;11.90;;;7.90;;
1679;SDS011;838;51.794;12.258;2024-03-07T15:45:08;13.83;;;8.37;;
1679;SDS011;838;51.794;12.258;2024-03-07T15:50:16;11.07;;;7.80;;